Time,TemperatureF,DewpointF,PressureIn,WindDirection,WindDirectionDegrees,WindSpeedMPH,WindSpeedGustMPH,Humidity,HourlyPrecipIn,Conditions,Clouds,dailyrainin,SoftwareType,DateUTC
2013-02-03 00:00:00,22.8,13.9,29.99,SW,226,0.0,0.0,68,0.00,,,0.00,VWS V14.01,2013-02-03 06:00:00,
2013-02-03 00:06:00,22.5,13.5,29.99,SW,226,0.0,0.0,68,0.00,,,0.00,VWS V14.01,2013-02-03 06:06:00,
2013-02-03 00:12:00,22.1,13.5,29.96,NW,313,0.0,0.0,69,0.00,,,0.00,VWS V14.01,2013-02-03 06:12:00,
2013-02-03 00:17:00,22.1,13.8,29.96,NW,313,0.0,0.0,70,0.00,,,0.00,VWS V14.01,2013-02-03 06:17:00,
2013-02-03 00:23:00,22.3,14.0,29.96,NW,313,4.5,4.5,70,0.00,,,0.00,VWS V14.01,2013-02-03 06:23:00,
2013-02-03 00:28:00,22.3,14.0,29.96,NW,313,0.0,0.0,70,0.00,,,0.00,VWS V14.01,2013-02-03 06:28:00,
2013-02-03 00:34:00,21.9,13.3,29.96,NW,313,0.0,0.0,69,0.00,,,0.00,VWS V14.01,2013-02-03 06:34:00,
2013-02-03 00:39:00,21.9,13.6,29.96,NW,313,0.0,0.0,70,0.00,,,0.00,VWS V14.01,2013-02-03 06:39:00,
2013-02-03 00:45:00,21.9,13.6,29.96,NW,313,0.0,0.0,70,0.00,,,0.00,VWS V14.01,2013-02-03 06:45:00,
2013-02-03 00:51:00,21.2,12.6,29.96,NW,313,0.0,0.0,69,0.00,,,0.00,VWS V14.01,2013-02-03 06:51:00,
2013-02-03 00:57:00,20.8,12.3,29.96,NW,313,0.0,0.0,69,0.00,,,0.00,VWS V14.01,2013-02-03 06:57:00,
2013-02-03 01:02:00,20.5,11.9,29.96,NW,313,0.0,0.0,69,0.00,,,0.00,VWS V14.01,2013-02-03 07:02:00,
2013-02-03 01:08:00,20.5,11.9,29.96,NW,313,0.0,0.0,69,0.00,,,0.00,VWS V14.01,2013-02-03 07:08:00,
2013-02-03 01:13:00,20.3,11.8,29.96,NW,313,0.0,0.0,69,0.00,,,0.00,VWS V14.01,2013-02-03 07:13:00,
2013-02-03 01:18:00,20.5,12.6,29.96,NW,313,0.0,0.0,71,0.00,,,0.00,VWS V14.01,2013-02-03 07:18:00,
2013-02-03 01:23:00,21.0,13.4,29.96,NW,313,0.0,0.0,72,0.00,,,0.00,VWS V14.01,2013-02-03 07:23:00,
2013-02-03 01:29:00,22.6,15.6,29.96,NW,313,0.0,0.0,74,0.00,,,0.00,VWS V14.01,2013-02-03 07:29:00,
2013-02-03 01:35:00,24.4,18.0,29.96,NW,305,0.0,3.6,76,0.00,,,0.00,VWS V14.01,2013-02-03 07:35:00,
2013-02-03 01:40:00,26.8,21.1,29.96,WNW,303,5.4,5.4,79,0.00,,,0.00,VWS V14.01,2013-02-03 07:40:00,
2013-02-03 01:46:00,27.9,22.5,29.96,WNW,292,6.3,6.3,80,0.00,,,0.00,VWS V14.01,2013-02-03 07:46:00,
2013-02-03 01:51:00,28.4,23.0,29.96,North,353,8.1,8.1,80,0.00,,,0.00,VWS V14.01,2013-02-03 07:51:00,
2013-02-03 01:56:00,28.9,23.0,29.96,NNW,333,6.3,6.3,78,0.00,,,0.00,VWS V14.01,2013-02-03 07:56:00,
2013-02-03 02:01:00,29.5,21.9,29.96,North,4,6.3,6.3,73,0.00,,,0.00,VWS V14.01,2013-02-03 08:01:00,
2013-02-03 02:07:00,30.0,21.4,29.96,NNW,339,7.2,7.2,70,0.00,,,0.00,VWS V14.01,2013-02-03 08:07:00,
2013-02-03 02:12:00,30.4,20.8,29.96,NW,323,7.2,7.2,67,0.00,,,0.00,VWS V14.01,2013-02-03 08:12:00,
2013-02-03 02:18:00,30.9,20.5,29.96,NNW,335,5.4,5.4,65,0.00,,,0.00,VWS V14.01,2013-02-03 08:18:00,
2013-02-03 02:23:00,31.3,20.2,29.96,NNW,334,6.3,6.3,63,0.00,,,0.00,VWS V14.01,2013-02-03 08:23:00,
2013-02-03 02:29:00,31.8,19.5,29.96,NNW,340,7.2,7.2,60,0.00,,,0.00,VWS V14.01,2013-02-03 08:29:00,
2013-02-03 02:34:00,32.0,19.7,29.96,NNW,334,6.3,6.3,60,0.00,,,0.00,VWS V14.01,2013-02-03 08:34:00,
2013-02-03 02:40:00,32.2,19.5,29.99,NNE,19,5.4,5.4,59,0.00,,,0.00,VWS V14.01,2013-02-03 08:40:00,
2013-02-03 02:46:00,32.4,19.2,29.99,NNW,330,7.2,7.2,58,0.00,,,0.00,VWS V14.01,2013-02-03 08:46:00,
2013-02-03 02:51:00,32.5,19.0,29.99,NE,43,15.2,15.2,57,0.00,,,0.00,VWS V14.01,2013-02-03 08:51:00,
2013-02-03 02:57:00,32.4,18.0,29.99,NNE,14,16.1,16.1,55,0.00,,,0.00,VWS V14.01,2013-02-03 08:57:00,
2013-02-03 03:02:00,32.2,17.8,29.99,NE,36,5.4,7.2,55,0.00,,,0.00,VWS V14.01,2013-02-03 09:02:00,
2013-02-03 03:07:00,30.9,16.2,29.99,North,1,8.1,8.1,54,0.00,,,0.00,VWS V14.01,2013-02-03 09:07:00,
2013-02-03 03:13:00,29.3,16.8,29.99,East,99,7.2,7.2,59,0.00,,,0.00,VWS V14.01,2013-02-03 09:13:00,
2013-02-03 03:19:00,28.6,16.9,29.99,North,7,6.3,6.3,61,0.00,,,0.00,VWS V14.01,2013-02-03 09:19:00,
2013-02-03 03:25:00,28.6,17.2,29.99,North,9,6.3,6.3,62,0.00,,,0.00,VWS V14.01,2013-02-03 09:25:00,
2013-02-03 03:30:00,28.4,16.7,29.99,NNE,31,8.1,8.1,61,0.00,,,0.00,VWS V14.01,2013-02-03 09:30:00,
2013-02-03 03:36:00,28.4,16.3,29.99,NNW,345,5.4,5.4,60,0.00,,,0.00,VWS V14.01,2013-02-03 09:36:00,
2013-02-03 03:41:00,28.0,16.7,30.02,ENE,71,10.7,10.7,62,0.00,,,0.00,VWS V14.01,2013-02-03 09:41:00,
2013-02-03 03:46:00,27.9,16.9,30.02,North,1,6.3,6.3,63,0.00,,,0.00,VWS V14.01,2013-02-03 09:46:00,
2013-02-03 03:51:00,27.7,16.7,30.02,NW,315,8.1,8.1,63,0.00,,,0.00,VWS V14.01,2013-02-03 09:51:00,
2013-02-03 03:57:00,27.5,16.6,30.02,NW,318,7.2,7.2,63,0.00,,,0.00,VWS V14.01,2013-02-03 09:57:00,
2013-02-03 04:02:00,27.3,16.8,30.02,NE,38,9.8,9.8,64,0.00,,,0.00,VWS V14.01,2013-02-03 10:02:00,
2013-02-03 04:08:00,27.1,16.6,30.02,North,349,0.0,4.9,64,0.00,,,0.00,VWS V14.01,2013-02-03 10:08:00,
2013-02-03 04:14:00,27.0,15.7,30.02,NNE,30,8.1,8.7,62,0.00,,,0.00,VWS V14.01,2013-02-03 10:14:00,
2013-02-03 04:19:00,26.6,13.8,30.02,NNE,16,12.5,12.5,58,0.00,,,0.00,VWS V14.01,2013-02-03 10:19:00,
2013-02-03 04:25:00,25.7,12.2,30.02,North,7,10.7,10.7,56,0.00,,,0.00,VWS V14.01,2013-02-03 10:25:00,
2013-02-03 04:30:00,25.2,10.9,30.02,NNE,12,6.3,6.3,54,0.00,,,0.00,VWS V14.01,2013-02-03 10:30:00,
2013-02-03 04:36:00,24.6,9.9,30.02,ESE,113,6.3,6.3,53,0.00,,,0.00,VWS V14.01,2013-02-03 10:36:00,
2013-02-03 04:41:00,24.4,9.8,30.05,NNE,21,7.2,7.2,53,0.00,,,0.00,VWS V14.01,2013-02-03 10:41:00,
2013-02-03 04:46:00,24.4,9.8,30.05,North,353,10.7,10.7,53,0.00,,,0.00,VWS V14.01,2013-02-03 10:46:00,
2013-02-03 04:52:00,24.3,9.6,30.05,NW,313,9.8,9.8,53,0.00,,,0.00,VWS V14.01,2013-02-03 10:52:00,
2013-02-03 04:57:00,23.9,8.9,30.05,North,353,10.7,10.7,52,0.00,,,0.00,VWS V14.01,2013-02-03 10:57:00,
2013-02-03 05:03:00,23.5,8.5,30.05,NNE,32,7.2,7.2,52,0.00,,,0.00,VWS V14.01,2013-02-03 11:03:00,
2013-02-03 05:08:00,23.5,8.9,30.05,NNE,20,5.4,5.4,53,0.00,,,0.00,VWS V14.01,2013-02-03 11:08:00,
2013-02-03 05:13:00,23.4,8.8,30.05,North,357,5.4,5.4,53,0.00,,,0.00,VWS V14.01,2013-02-03 11:13:00,
2013-02-03 05:18:00,23.2,8.6,30.05,NNW,330,9.8,9.8,53,0.00,,,0.00,VWS V14.01,2013-02-03 11:18:00,
2013-02-03 05:24:00,23.0,8.4,30.05,NNW,327,7.2,7.2,53,0.00,,,0.00,VWS V14.01,2013-02-03 11:24:00,
2013-02-03 05:29:00,22.6,8.1,30.05,NW,318,8.1,8.1,53,0.00,,,0.00,VWS V14.01,2013-02-03 11:29:00,
2013-02-03 05:35:00,22.5,7.9,30.05,NNE,19,5.4,5.4,53,0.00,,,0.00,VWS V14.01,2013-02-03 11:35:00,
2013-02-03 05:41:00,22.3,6.9,30.08,NNW,335,10.7,10.7,51,0.00,,,0.00,VWS V14.01,2013-02-03 11:41:00,
2013-02-03 05:46:00,22.3,6.0,30.08,NNE,22,5.4,5.8,49,0.00,,,0.00,VWS V14.01,2013-02-03 11:46:00,
2013-02-03 05:51:00,22.1,5.4,30.08,NW,318,5.4,6.3,48,0.00,,,0.00,VWS V14.01,2013-02-03 11:51:00,
2013-02-03 05:56:00,21.9,5.2,30.08,North,357,11.6,11.6,48,0.00,,,0.00,VWS V14.01,2013-02-03 11:56:00,
2013-02-03 06:01:00,21.7,4.6,30.08,NW,312,6.3,6.3,47,0.00,,,0.00,VWS V14.01,2013-02-03 12:01:00,
2013-02-03 06:07:00,21.6,4.5,30.08,NE,35,6.3,7.6,47,0.00,,,0.00,VWS V14.01,2013-02-03 12:07:00,
2013-02-03 06:13:00,21.7,4.2,30.08,NNE,22,8.1,8.1,46,0.00,,,0.00,VWS V14.01,2013-02-03 12:13:00,
2013-02-03 06:18:00,21.6,4.0,30.08,North,8,5.4,5.4,46,0.00,,,0.00,VWS V14.01,2013-02-03 12:18:00,
2013-02-03 06:24:00,21.4,3.8,30.08,North,7,5.4,5.4,46,0.00,,,0.00,VWS V14.01,2013-02-03 12:24:00,
2013-02-03 06:29:00,21.2,3.7,30.08,North,9,10.7,10.7,46,0.00,,,0.00,VWS V14.01,2013-02-03 12:29:00,
2013-02-03 06:35:00,21.2,3.7,30.08,North,3,6.3,6.3,46,0.00,,,0.00,VWS V14.01,2013-02-03 12:35:00,
2013-02-03 06:41:00,21.0,3.5,30.08,NNE,20,7.2,7.2,46,0.00,,,0.00,VWS V14.01,2013-02-03 12:41:00,
2013-02-03 06:46:00,20.8,3.3,30.08,North,350,6.3,6.3,46,0.00,,,0.00,VWS V14.01,2013-02-03 12:46:00,
2013-02-03 06:51:00,20.7,3.2,30.08,North,353,5.4,5.4,46,0.00,,,0.00,VWS V14.01,2013-02-03 12:51:00,
2013-02-03 06:56:00,20.7,3.2,30.11,North,0,5.4,5.4,46,0.00,,,0.00,VWS V14.01,2013-02-03 12:56:00,
2013-02-03 07:02:00,20.5,3.0,30.11,NNE,12,11.6,11.6,46,0.00,,,0.00,VWS V14.01,2013-02-03 13:02:00,
2013-02-03 07:07:00,20.7,3.2,30.11,NNE,15,5.4,5.4,46,0.00,,,0.00,VWS V14.01,2013-02-03 13:07:00,
2013-02-03 07:13:00,20.3,3.3,30.11,WNW,301,11.6,11.6,47,0.00,,,0.00,VWS V14.01,2013-02-03 13:13:00,
2013-02-03 07:19:00,20.3,3.3,30.11,North,0,5.4,5.4,47,0.00,,,0.00,VWS V14.01,2013-02-03 13:19:00,
2013-02-03 07:24:00,20.3,3.3,30.11,NW,316,5.4,5.4,47,0.00,,,0.00,VWS V14.01,2013-02-03 13:24:00,
2013-02-03 07:30:00,20.3,3.3,30.11,North,357,5.4,5.4,47,0.00,,,0.00,VWS V14.01,2013-02-03 13:30:00,
2013-02-03 07:35:00,20.3,3.3,30.11,West,270,6.3,6.3,47,0.00,,,0.00,VWS V14.01,2013-02-03 13:35:00,
2013-02-03 07:41:00,20.5,3.5,30.11,North,350,7.2,7.2,47,0.00,,,0.00,VWS V14.01,2013-02-03 13:41:00,
2013-02-03 07:47:00,20.7,3.2,30.11,NNW,337,6.3,6.3,46,0.00,,,0.00,VWS V14.01,2013-02-03 13:47:00,
2013-02-03 07:52:00,20.7,3.2,30.11,NNE,22,7.2,7.2,46,0.00,,,0.00,VWS V14.01,2013-02-03 13:52:00,
2013-02-03 07:57:00,20.7,2.7,30.11,NNE,14,10.7,10.7,45,0.00,,,0.00,VWS V14.01,2013-02-03 13:57:00,
2013-02-03 08:02:00,20.7,2.7,30.11,NNE,20,8.1,8.1,45,0.00,,,0.00,VWS V14.01,2013-02-03 14:02:00,
2013-02-03 08:07:00,20.8,2.9,30.11,NNE,23,5.4,5.4,45,0.00,,,0.00,VWS V14.01,2013-02-03 14:07:00,
2013-02-03 08:13:00,20.8,2.9,30.14,NNE,16,6.3,6.3,45,0.00,,,0.00,VWS V14.01,2013-02-03 14:13:00,
2013-02-03 08:18:00,20.8,2.9,30.14,NNW,346,14.3,14.3,45,0.00,,,0.00,VWS V14.01,2013-02-03 14:18:00,
2013-02-03 08:23:00,20.8,2.9,30.14,North,4,0.0,3.6,45,0.00,,,0.00,VWS V14.01,2013-02-03 14:23:00,
2013-02-03 08:28:00,21.0,3.0,30.14,ENE,58,6.3,8.1,45,0.00,,,0.00,VWS V14.01,2013-02-03 14:28:00,
2013-02-03 08:34:00,21.2,3.2,30.14,NNE,23,5.4,6.3,45,0.00,,,0.00,VWS V14.01,2013-02-03 14:34:00,
2013-02-03 08:40:00,21.4,2.9,30.14,NNE,20,7.2,7.2,44,0.00,,,0.00,VWS V14.01,2013-02-03 14:40:00,
2013-02-03 08:45:00,21.6,3.0,30.14,NNE,25,7.2,7.2,44,0.00,,,0.00,VWS V14.01,2013-02-03 14:45:00,
2013-02-03 08:50:00,21.7,3.2,30.14,ENE,58,7.2,7.2,44,0.00,,,0.00,VWS V14.01,2013-02-03 14:50:00,
2013-02-03 08:55:00,21.9,3.4,30.14,North,353,5.4,5.8,44,0.00,,,0.00,VWS V14.01,2013-02-03 14:55:00,
2013-02-03 09:01:00,22.1,3.5,30.14,North,7,5.4,5.4,44,0.00,,,0.00,VWS V14.01,2013-02-03 15:01:00,
2013-02-03 09:06:00,22.5,3.9,30.14,North,0,7.2,7.2,44,0.00,,,0.00,VWS V14.01,2013-02-03 15:06:00,
2013-02-03 09:12:00,22.8,4.2,30.14,WSW,249,8.1,8.1,44,0.00,,,0.00,VWS V14.01,2013-02-03 15:12:00,
2013-02-03 09:18:00,23.0,4.3,30.14,North,0,10.7,10.7,44,0.00,,,0.00,VWS V14.01,2013-02-03 15:18:00,
2013-02-03 09:23:00,23.2,4.0,30.14,NNW,336,8.1,8.1,43,0.00,,,0.00,VWS V14.01,2013-02-03 15:23:00,
2013-02-03 09:29:00,23.5,4.3,30.17,NNE,13,5.4,5.4,43,0.00,,,0.00,VWS V14.01,2013-02-03 15:29:00,
2013-02-03 09:34:00,24.3,5.0,30.17,NNE,17,8.1,8.1,43,0.00,,,0.00,VWS V14.01,2013-02-03 15:34:00,
2013-02-03 09:39:00,24.6,5.3,30.17,WNW,292,8.1,8.1,43,0.00,,,0.00,VWS V14.01,2013-02-03 15:39:00,
2013-02-03 09:44:00,24.6,5.3,30.17,NNE,16,9.8,9.8,43,0.00,,,0.00,VWS V14.01,2013-02-03 15:44:00,
2013-02-03 09:50:00,25.2,5.3,30.17,NW,305,7.2,7.2,42,0.00,,,0.00,VWS V14.01,2013-02-03 15:50:00,
2013-02-03 09:55:00,25.3,5.5,30.17,NNE,20,8.1,8.1,42,0.00,,,0.00,VWS V14.01,2013-02-03 15:55:00,
2013-02-03 10:01:00,25.9,6.0,30.17,NNE,32,6.3,6.3,42,0.00,,,0.00,VWS V14.01,2013-02-03 16:01:00,
2013-02-03 10:06:00,26.2,6.3,30.17,NNE,15,7.2,7.2,42,0.00,,,0.00,VWS V14.01,2013-02-03 16:06:00,
2013-02-03 10:12:00,27.1,6.6,30.17,NW,312,0.0,4.0,41,0.00,,,0.00,VWS V14.01,2013-02-03 16:12:00,
2013-02-03 10:17:00,27.5,6.9,30.17,NNW,336,4.5,5.4,41,0.00,,,0.00,VWS V14.01,2013-02-03 16:17:00,
2013-02-03 10:23:00,28.0,7.4,30.17,West,269,6.3,6.3,41,0.00,,,0.00,VWS V14.01,2013-02-03 16:23:00,
2013-02-03 10:29:00,28.9,7.7,30.17,NW,326,5.4,5.4,40,0.00,,,0.00,VWS V14.01,2013-02-03 16:29:00,
2013-02-03 10:34:00,29.1,6.7,30.17,North,0,5.4,5.4,38,0.00,,,0.00,VWS V14.01,2013-02-03 16:34:00,
2013-02-03 10:40:00,29.1,6.7,30.17,NNE,23,8.1,8.1,38,0.00,,,0.00,VWS V14.01,2013-02-03 16:40:00,
2013-02-03 10:46:00,29.5,7.0,30.17,North,353,6.3,6.3,38,0.00,,,0.00,VWS V14.01,2013-02-03 16:46:00,
2013-02-03 10:51:00,30.7,7.6,30.17,NW,305,5.4,5.8,37,0.00,,,0.00,VWS V14.01,2013-02-03 16:51:00,
2013-02-03 10:57:00,30.4,6.6,30.17,NW,320,8.1,8.1,36,0.00,,,0.00,VWS V14.01,2013-02-03 16:57:00,
2013-02-03 11:02:00,30.9,7.1,30.17,North,353,7.2,7.2,36,0.00,,,0.00,VWS V14.01,2013-02-03 17:02:00,
2013-02-03 11:08:00,30.7,6.3,30.17,NW,305,10.7,10.7,35,0.00,,,0.00,VWS V14.01,2013-02-03 17:08:00,
2013-02-03 11:14:00,30.7,6.3,30.17,NW,326,7.2,7.2,35,0.00,,,0.00,VWS V14.01,2013-02-03 17:14:00,
2013-02-03 11:19:00,30.6,6.2,30.17,NNW,330,6.3,6.3,35,0.00,,,0.00,VWS V14.01,2013-02-03 17:19:00,
2013-02-03 11:25:00,32.7,8.7,30.17,NW,311,0.0,0.0,36,0.00,,,0.00,VWS V14.01,2013-02-03 17:25:00,
2013-02-03 11:30:00,33.8,8.4,30.17,NW,315,0.0,3.6,34,0.00,,,0.00,VWS V14.01,2013-02-03 17:30:00,
2013-02-03 11:36:00,32.4,6.5,30.17,NNW,331,8.1,8.1,33,0.00,,,0.00,VWS V14.01,2013-02-03 17:36:00,
2013-02-03 11:42:00,32.7,6.8,30.17,NNW,328,5.4,5.4,33,0.00,,,0.00,VWS V14.01,2013-02-03 17:42:00,
2013-02-03 11:47:00,33.6,7.6,30.17,North,353,0.0,0.0,33,0.00,,,0.00,VWS V14.01,2013-02-03 17:47:00,
2013-02-03 11:52:00,33.6,7.6,30.17,NW,310,8.1,8.1,33,0.00,,,0.00,VWS V14.01,2013-02-03 17:52:00,
2013-02-03 11:57:00,34.0,7.2,30.14,NW,326,8.1,8.1,32,0.00,,,0.00,VWS V14.01,2013-02-03 17:57:00,
2013-02-03 12:02:00,33.8,7.8,30.14,NW,323,7.2,7.2,33,0.00,,,0.00,VWS V14.01,2013-02-03 18:02:00,
2013-02-03 12:08:00,34.7,7.9,30.14,NNW,333,4.5,4.5,32,0.00,,,0.00,VWS V14.01,2013-02-03 18:08:00,
2013-02-03 12:14:00,35.1,7.5,30.14,NW,308,5.4,5.4,31,0.00,,,0.00,VWS V14.01,2013-02-03 18:14:00,
2013-02-03 12:19:00,33.8,7.1,30.14,NNW,332,5.4,5.4,32,0.00,,,0.00,VWS V14.01,2013-02-03 18:19:00,
2013-02-03 12:24:00,33.8,7.1,30.14,North,357,0.0,0.0,32,0.00,,,0.00,VWS V14.01,2013-02-03 18:24:00,
2013-02-03 12:29:00,34.3,7.6,30.14,North,349,0.0,0.0,32,0.00,,,0.00,VWS V14.01,2013-02-03 18:29:00,
2013-02-03 12:35:00,34.9,7.3,30.14,NNW,348,0.0,0.0,31,0.00,,,0.00,VWS V14.01,2013-02-03 18:35:00,
2013-02-03 12:40:00,35.8,8.1,30.14,NW,307,0.0,3.1,31,0.00,,,0.00,VWS V14.01,2013-02-03 18:40:00,
2013-02-03 12:46:00,35.2,7.7,30.14,NNW,329,0.0,0.0,31,0.00,,,0.00,VWS V14.01,2013-02-03 18:46:00,
2013-02-03 12:52:00,36.5,8.8,30.14,NNW,329,0.0,0.0,31,0.00,,,0.00,VWS V14.01,2013-02-03 18:52:00,
2013-02-03 12:57:00,37.8,9.9,30.11,NNW,329,0.0,0.0,31,0.00,,,0.00,VWS V14.01,2013-02-03 18:57:00,
2013-02-03 13:03:00,37.6,9.7,30.11,NW,314,5.4,5.4,31,0.00,,,0.00,VWS V14.01,2013-02-03 19:03:00,
2013-02-03 13:08:00,36.9,9.1,30.11,WNW,289,0.0,4.9,31,0.00,,,0.00,VWS V14.01,2013-02-03 19:08:00,
2013-02-03 13:14:00,36.7,8.9,30.11,West,266,7.2,7.2,31,0.00,,,0.00,VWS V14.01,2013-02-03 19:14:00,
2013-02-03 13:20:00,36.7,8.9,30.11,NW,326,10.7,10.7,31,0.00,,,0.00,VWS V14.01,2013-02-03 19:20:00,
2013-02-03 13:25:00,36.9,9.1,30.11,WNW,290,5.4,5.4,31,0.00,,,0.00,VWS V14.01,2013-02-03 19:25:00,
2013-02-03 13:30:00,36.9,9.8,30.11,WNW,289,6.3,6.3,32,0.00,,,0.00,VWS V14.01,2013-02-03 19:30:00,
2013-02-03 13:36:00,36.5,8.8,30.11,West,281,5.4,5.4,31,0.00,,,0.00,VWS V14.01,2013-02-03 19:36:00,
2013-02-03 13:42:00,35.6,8.7,30.11,WNW,296,6.3,6.3,32,0.00,,,0.00,VWS V14.01,2013-02-03 19:42:00,
2013-02-03 13:47:00,35.8,8.1,30.11,WNW,287,4.5,4.5,31,0.00,,,0.00,VWS V14.01,2013-02-03 19:47:00,
2013-02-03 13:52:00,35.6,8.0,30.11,West,279,5.4,5.4,31,0.00,,,0.00,VWS V14.01,2013-02-03 19:52:00,
2013-02-03 13:58:00,36.0,8.3,30.08,WNW,294,5.4,5.4,31,0.00,,,0.00,VWS V14.01,2013-02-03 19:58:00,
2013-02-03 14:03:00,36.9,9.1,30.08,NW,311,0.0,3.6,31,0.00,,,0.00,VWS V14.01,2013-02-03 20:03:00,
2013-02-03 14:09:00,37.9,10.0,30.08,WNW,300,0.0,2.2,31,0.00,,,0.00,VWS V14.01,2013-02-03 20:09:00,
2013-02-03 14:14:00,38.5,10.5,30.08,West,265,0.0,3.6,31,0.00,,,0.00,VWS V14.01,2013-02-03 20:14:00,
2013-02-03 14:20:00,37.9,9.3,30.08,West,272,5.4,5.4,30,0.00,,,0.00,VWS V14.01,2013-02-03 20:20:00,
2013-02-03 14:26:00,37.6,9.0,30.08,West,271,4.5,4.5,30,0.00,,,0.00,VWS V14.01,2013-02-03 20:26:00,
2013-02-03 14:31:00,37.2,8.6,30.08,WNW,302,4.5,4.5,30,0.00,,,0.00,VWS V14.01,2013-02-03 20:31:00,
2013-02-03 14:36:00,36.7,8.9,30.08,WNW,300,0.0,0.0,31,0.00,,,0.00,VWS V14.01,2013-02-03 20:36:00,
2013-02-03 14:41:00,35.6,8.0,30.05,WNW,301,5.4,5.4,31,0.00,,,0.00,VWS V14.01,2013-02-03 20:41:00,
2013-02-03 14:47:00,35.1,8.2,30.05,WSW,246,4.5,4.5,32,0.00,,,0.00,VWS V14.01,2013-02-03 20:47:00,
2013-02-03 14:52:00,34.7,7.9,30.05,WSW,254,0.0,0.0,32,0.00,,,0.00,VWS V14.01,2013-02-03 20:52:00,
2013-02-03 14:58:00,34.5,7.7,30.05,WSW,255,0.0,3.6,32,0.00,,,0.00,VWS V14.01,2013-02-03 20:58:00,
2013-02-03 15:03:00,34.9,8.0,30.05,WSW,253,0.0,2.7,32,0.00,,,0.00,VWS V14.01,2013-02-03 21:03:00,
2013-02-03 15:08:00,34.9,8.0,30.05,NW,306,7.2,7.2,32,0.00,,,0.00,VWS V14.01,2013-02-03 21:08:00,
2013-02-03 15:13:00,34.9,8.0,30.05,WNW,286,5.4,5.4,32,0.00,,,0.00,VWS V14.01,2013-02-03 21:13:00,
2013-02-03 15:19:00,35.1,8.2,30.05,WSW,249,7.2,7.2,32,0.00,,,0.00,VWS V14.01,2013-02-03 21:19:00,
2013-02-03 15:24:00,35.1,8.2,30.05,West,277,0.0,0.0,32,0.00,,,0.00,VWS V14.01,2013-02-03 21:24:00,
2013-02-03 15:29:00,35.1,8.2,30.05,WSW,245,7.2,7.2,32,0.00,,,0.00,VWS V14.01,2013-02-03 21:29:00,
2013-02-03 15:34:00,34.9,8.0,30.05,West,270,0.0,2.2,32,0.00,,,0.00,VWS V14.01,2013-02-03 21:34:00,
2013-02-03 15:39:00,34.5,7.7,30.05,NW,310,0.0,3.1,32,0.00,,,0.00,VWS V14.01,2013-02-03 21:39:00,
2013-02-03 15:44:00,34.2,7.4,30.02,West,267,0.0,2.7,32,0.00,,,0.00,VWS V14.01,2013-02-03 21:44:00,
2013-02-03 15:50:00,34.0,7.9,30.02,WSW,252,6.3,6.3,33,0.00,,,0.00,VWS V14.01,2013-02-03 21:50:00,
2013-02-03 15:55:00,33.8,7.1,30.02,West,279,5.4,5.4,32,0.00,,,0.00,VWS V14.01,2013-02-03 21:55:00,
2013-02-03 16:01:00,33.6,7.6,30.02,West,270,6.3,6.3,33,0.00,,,0.00,VWS V14.01,2013-02-03 22:01:00,
2013-02-03 16:06:00,33.3,7.3,30.02,West,274,6.3,6.3,33,0.00,,,0.00,VWS V14.01,2013-02-03 22:06:00,
2013-02-03 16:12:00,33.1,7.1,30.02,WSW,257,0.0,0.0,33,0.00,,,0.00,VWS V14.01,2013-02-03 22:12:00,
2013-02-03 16:18:00,33.1,7.1,30.02,WSW,244,0.0,2.2,33,0.00,,,0.00,VWS V14.01,2013-02-03 22:18:00,
2013-02-03 16:23:00,33.1,7.1,30.02,WSW,247,0.0,0.0,33,0.00,,,0.00,VWS V14.01,2013-02-03 22:23:00,
2013-02-03 16:29:00,32.7,6.8,30.02,WSW,241,0.0,4.9,33,0.00,,,0.00,VWS V14.01,2013-02-03 22:29:00,
2013-02-03 16:34:00,32.5,7.3,30.02,WSW,253,0.0,0.0,34,0.00,,,0.00,VWS V14.01,2013-02-03 22:34:00,
2013-02-03 16:40:00,32.2,7.0,30.02,WSW,251,6.3,6.3,34,0.00,,,0.00,VWS V14.01,2013-02-03 22:40:00,
2013-02-03 16:46:00,31.6,6.5,30.02,West,264,0.0,0.0,34,0.00,,,0.00,VWS V14.01,2013-02-03 22:46:00,
2013-02-03 16:51:00,31.3,6.2,30.02,SW,234,0.0,0.0,34,0.00,,,0.00,VWS V14.01,2013-02-03 22:51:00,
2013-02-03 16:56:00,30.6,6.2,29.99,SW,233,0.0,0.0,35,0.00,,,0.00,VWS V14.01,2013-02-03 22:56:00,
2013-02-03 17:02:00,29.8,6.2,29.99,SW,235,0.0,3.1,36,0.00,,,0.00,VWS V14.01,2013-02-03 23:02:00,
2013-02-03 17:07:00,29.5,5.8,29.99,SW,235,0.0,0.0,36,0.00,,,0.00,VWS V14.01,2013-02-03 23:07:00,
2013-02-03 17:12:00,29.1,6.1,29.99,SW,235,0.0,0.0,37,0.00,,,0.00,VWS V14.01,2013-02-03 23:12:00,
2013-02-03 17:18:00,28.4,6.1,29.99,SW,235,0.0,0.0,38,0.00,,,0.00,VWS V14.01,2013-02-03 23:18:00,
2013-02-03 17:23:00,27.7,5.4,29.99,SW,235,0.0,0.0,38,0.00,,,0.00,VWS V14.01,2013-02-03 23:23:00,
2013-02-03 17:28:00,27.0,4.8,29.99,SW,235,0.0,0.0,38,0.00,,,0.00,VWS V14.01,2013-02-03 23:28:00,
2013-02-03 17:33:00,26.4,4.8,29.99,SW,235,0.0,0.0,39,0.00,,,0.00,VWS V14.01,2013-02-03 23:33:00,
2013-02-03 17:39:00,26.1,5.1,29.99,SW,235,0.0,0.0,40,0.00,,,0.00,VWS V14.01,2013-02-03 23:39:00,
2013-02-03 17:45:00,25.5,4.6,29.99,SW,235,0.0,0.0,40,0.00,,,0.00,VWS V14.01,2013-02-03 23:45:00,
2013-02-03 17:51:00,25.2,4.8,29.99,SW,235,0.0,0.0,41,0.00,,,0.00,VWS V14.01,2013-02-03 23:51:00,
2013-02-03 17:57:00,24.8,5.0,29.99,SW,235,0.0,0.0,42,0.00,,,0.00,VWS V14.01,2013-02-03 23:57:00,
2013-02-03 18:02:00,24.6,4.8,29.99,SW,235,0.0,0.0,42,0.00,,,0.00,VWS V14.01,2013-02-04 00:02:00,
2013-02-03 18:07:00,24.4,4.7,29.99,SW,235,0.0,0.0,42,0.00,,,0.00,VWS V14.01,2013-02-04 00:07:00,
2013-02-03 18:12:00,23.9,4.2,29.99,SW,235,0.0,0.0,42,0.00,,,0.00,VWS V14.01,2013-02-04 00:12:00,
2013-02-03 18:18:00,23.5,3.8,29.99,SW,235,0.0,0.0,42,0.00,,,0.00,VWS V14.01,2013-02-04 00:18:00,
2013-02-03 18:23:00,23.2,3.5,29.99,SW,235,0.0,0.0,42,0.00,,,0.00,VWS V14.01,2013-02-04 00:23:00,
2013-02-03 18:29:00,22.8,3.7,29.99,SW,235,0.0,0.0,43,0.00,,,0.00,VWS V14.01,2013-02-04 00:29:00,
2013-02-03 18:34:00,22.5,3.4,29.99,SW,235,0.0,0.0,43,0.00,,,0.00,VWS V14.01,2013-02-04 00:34:00,
2013-02-03 18:40:00,22.3,3.2,29.99,SW,235,0.0,0.0,43,0.00,,,0.00,VWS V14.01,2013-02-04 00:40:00,
2013-02-03 18:45:00,22.1,3.0,29.99,SW,235,0.0,0.0,43,0.00,,,0.00,VWS V14.01,2013-02-04 00:45:00,
2013-02-03 18:51:00,22.1,3.5,29.99,SW,235,0.0,0.0,44,0.00,,,0.00,VWS V14.01,2013-02-04 00:51:00,
2013-02-03 18:57:00,22.1,3.5,29.99,SW,235,0.0,0.0,44,0.00,,,0.00,VWS V14.01,2013-02-04 00:57:00,
2013-02-03 19:02:00,22.3,4.2,29.99,SW,235,0.0,0.0,45,0.00,,,0.00,VWS V14.01,2013-02-04 01:02:00,
2013-02-03 19:08:00,22.1,4.0,29.99,SW,235,0.0,0.0,45,0.00,,,0.00,VWS V14.01,2013-02-04 01:08:00,
2013-02-03 19:14:00,21.9,3.8,29.96,SW,235,0.0,0.0,45,0.00,,,0.00,VWS V14.01,2013-02-04 01:14:00,
2013-02-03 19:19:00,21.9,3.8,29.96,SW,235,0.0,0.0,45,0.00,,,0.00,VWS V14.01,2013-02-04 01:19:00,
2013-02-03 19:25:00,21.7,3.7,29.96,SW,235,0.0,0.0,45,0.00,,,0.00,VWS V14.01,2013-02-04 01:25:00,
2013-02-03 19:31:00,21.6,3.5,29.96,SW,235,0.0,0.0,45,0.00,,,0.00,VWS V14.01,2013-02-04 01:31:00,
2013-02-03 19:36:00,21.4,3.3,29.96,SW,235,0.0,0.0,45,0.00,,,0.00,VWS V14.01,2013-02-04 01:36:00,
2013-02-03 19:42:00,21.2,3.7,29.96,SW,235,0.0,0.0,46,0.00,,,0.00,VWS V14.01,2013-02-04 01:42:00,
2013-02-03 19:47:00,21.0,3.5,29.96,SW,235,0.0,0.0,46,0.00,,,0.00,VWS V14.01,2013-02-04 01:47:00,
2013-02-03 19:53:00,21.2,4.1,29.96,SW,235,0.0,0.0,47,0.00,,,0.00,VWS V14.01,2013-02-04 01:53:00,
2013-02-03 19:59:00,21.0,4.0,29.96,SW,235,0.0,0.0,47,0.00,,,0.00,VWS V14.01,2013-02-04 01:59:00,
2013-02-03 20:04:00,20.8,3.8,29.96,SW,235,0.0,0.0,47,0.00,,,0.00,VWS V14.01,2013-02-04 02:04:00,
2013-02-03 20:10:00,20.5,3.5,29.96,SW,235,0.0,0.0,47,0.00,,,0.00,VWS V14.01,2013-02-04 02:10:00,
2013-02-03 20:15:00,20.3,3.3,29.96,SW,235,0.0,0.0,47,0.00,,,0.00,VWS V14.01,2013-02-04 02:15:00,
2013-02-03 20:21:00,20.1,3.1,29.96,SW,235,0.0,0.0,47,0.00,,,0.00,VWS V14.01,2013-02-04 02:21:00,
2013-02-03 20:27:00,19.9,3.0,29.96,SW,235,0.0,0.0,47,0.00,,,0.00,VWS V14.01,2013-02-04 02:27:00,
2013-02-03 20:32:00,19.8,3.3,29.96,SW,235,0.0,0.0,48,0.00,,,0.00,VWS V14.01,2013-02-04 02:32:00,
2013-02-03 20:37:00,19.8,3.3,29.96,SW,235,0.0,0.0,48,0.00,,,0.00,VWS V14.01,2013-02-04 02:37:00,
2013-02-03 20:42:00,19.8,3.7,29.96,SW,235,0.0,0.0,49,0.00,,,0.00,VWS V14.01,2013-02-04 02:42:00,
2013-02-03 20:48:00,19.8,3.7,29.96,SW,235,0.0,0.0,49,0.00,,,0.00,VWS V14.01,2013-02-04 02:48:00,
2013-02-03 20:53:00,19.8,3.7,29.96,SW,235,0.0,0.0,49,0.00,,,0.00,VWS V14.01,2013-02-04 02:53:00,
2013-02-03 20:59:00,19.4,3.8,29.93,SW,235,0.0,0.0,50,0.00,,,0.00,VWS V14.01,2013-02-04 02:59:00,
2013-02-03 21:04:00,19.4,4.2,29.93,SW,235,0.0,0.0,51,0.00,,,0.00,VWS V14.01,2013-02-04 03:04:00,
2013-02-03 21:10:00,19.2,4.1,29.93,SW,235,0.0,0.0,51,0.00,,,0.00,VWS V14.01,2013-02-04 03:10:00,
2013-02-03 21:15:00,19.2,4.5,29.93,SW,235,0.0,0.0,52,0.00,,,0.00,VWS V14.01,2013-02-04 03:15:00,
2013-02-03 21:21:00,19.0,4.7,29.93,SW,235,0.0,0.0,53,0.00,,,0.00,VWS V14.01,2013-02-04 03:21:00,
2013-02-03 21:27:00,19.0,4.7,29.93,SW,235,0.0,0.0,53,0.00,,,0.00,VWS V14.01,2013-02-04 03:27:00,
2013-02-03 21:32:00,19.2,5.3,29.93,SW,235,0.0,0.0,54,0.00,,,0.00,VWS V14.01,2013-02-04 03:32:00,
2013-02-03 21:38:00,19.4,5.5,29.93,SW,235,0.0,0.0,54,0.00,,,0.00,VWS V14.01,2013-02-04 03:38:00,
2013-02-03 21:44:00,19.6,5.7,29.93,SW,235,0.0,0.0,54,0.00,,,0.00,VWS V14.01,2013-02-04 03:44:00,
2013-02-03 21:49:00,19.6,5.7,29.93,SW,235,0.0,0.0,54,0.00,,,0.00,VWS V14.01,2013-02-04 03:49:00,
2013-02-03 21:55:00,19.8,5.8,29.91,SW,235,0.0,0.0,54,0.00,,,0.00,VWS V14.01,2013-02-04 03:55:00,
2013-02-03 22:00:00,20.1,6.6,29.91,SW,235,0.0,0.0,55,0.00,,,0.00,VWS V14.01,2013-02-04 04:00:00,
2013-02-03 22:06:00,20.3,6.7,29.91,SW,235,0.0,0.0,55,0.00,,,0.00,VWS V14.01,2013-02-04 04:06:00,
2013-02-03 22:12:00,20.3,7.1,29.91,SW,235,0.0,0.0,56,0.00,,,0.00,VWS V14.01,2013-02-04 04:12:00,
2013-02-03 22:17:00,20.5,7.3,29.91,SW,235,0.0,0.0,56,0.00,,,0.00,VWS V14.01,2013-02-04 04:17:00,
2013-02-03 22:23:00,20.3,7.1,29.91,SW,235,0.0,0.0,56,0.00,,,0.00,VWS V14.01,2013-02-04 04:23:00,
2013-02-03 22:29:00,20.3,7.1,29.91,SW,235,0.0,0.0,56,0.00,,,0.00,VWS V14.01,2013-02-04 04:29:00,
2013-02-03 22:34:00,20.3,7.1,29.91,SW,235,0.0,0.0,56,0.00,,,0.00,VWS V14.01,2013-02-04 04:34:00,
2013-02-03 22:40:00,20.8,8.0,29.88,SW,235,0.0,0.0,57,0.00,,,0.00,VWS V14.01,2013-02-04 04:40:00,
2013-02-03 22:45:00,21.2,8.7,29.88,SW,235,0.0,0.0,58,0.00,,,0.00,VWS V14.01,2013-02-04 04:45:00,
2013-02-03 22:50:00,21.7,9.2,29.88,SSW,207,0.0,2.7,58,0.00,,,0.00,VWS V14.01,2013-02-04 04:50:00,
2013-02-03 22:55:00,22.3,9.8,29.88,SW,219,0.0,0.0,58,0.00,,,0.00,VWS V14.01,2013-02-04 04:55:00,
2013-02-03 23:01:00,22.8,10.3,29.88,SW,223,0.0,3.1,58,0.00,,,0.00,VWS V14.01,2013-02-04 05:01:00,
2013-02-03 23:02:00,22.8,10.3,29.88,SSW,211,5.4,5.4,58,0.00,,,0.00,VWS V14.01,2013-02-04 05:02:00,
2013-02-03 23:03:00,22.8,10.3,29.88,SW,227,0.0,2.7,58,0.00,,,0.00,VWS V14.01,2013-02-04 05:03:00,
2013-02-03 23:04:00,23.0,10.4,29.88,SSW,208,0.0,0.0,58,0.00,,,0.00,VWS V14.01,2013-02-04 05:04:00,
2013-02-03 23:09:00,23.5,10.6,29.88,SW,218,0.0,0.0,57,0.00,,,0.00,VWS V14.01,2013-02-04 05:09:00,
2013-02-03 23:15:00,23.9,10.5,29.88,West,260,0.0,3.6,56,0.00,,,0.00,VWS V14.01,2013-02-04 05:15:00,
2013-02-03 23:20:00,24.1,10.3,29.88,SSW,206,4.5,4.5,55,0.00,,,0.00,VWS V14.01,2013-02-04 05:20:00,
2013-02-03 23:26:00,24.3,10.0,29.85,SSW,207,0.0,0.0,54,0.00,,,0.00,VWS V14.01,2013-02-04 05:26:00,
2013-02-03 23:32:00,24.4,10.2,29.85,WSW,240,0.0,0.0,54,0.00,,,0.00,VWS V14.01,2013-02-04 05:32:00,
2013-02-03 23:38:00,24.6,9.9,29.85,SW,224,0.0,0.0,53,0.00,,,0.00,VWS V14.01,2013-02-04 05:38:00,
2013-02-03 23:44:00,24.8,10.1,29.85,WSW,237,0.0,2.7,53,0.00,,,0.00,VWS V14.01,2013-02-04 05:44:00,
2013-02-03 23:50:00,25.0,9.9,29.85,West,269,0.0,0.0,52,0.00,,,0.00,VWS V14.01,2013-02-04 05:50:00,
2013-02-03 23:55:00,25.2,10.0,29.85,WSW,252,0.0,0.0,52,0.00,,,0.00,VWS V14.01,2013-02-04 05:55:00,